Time;durP1;ratioP1;P1;durP2;ratioP2;P2;SDS_P1;SDS_P2;PMS_P1;PMS_P2;Temp;Humidity;BMP_temperature;BMP_pressure;BME280_temperature;BME280_humidity;BME280_pressure;Samples;Min_cycle;Max_cycle;Signal;HPM_P1;HPM_P2
2021/12/18 13:40:17;;;;;;;6.30;4.00;;;;;;;6.73;100.00;103711.31;5272667;27;2213754;-78
2021/12/18 13:43:12;;;;;;;7.23;4.60;;;;;;;6.89;100.00;103746.13;5328774;28;20296;-79
2021/12/18 13:46:04;;;;;;;6.38;4.78;;;;;;;7.05;100.00;103746.16;5326427;28;20576;-79
2021/12/18 13:48:40;;;;;;;5.27;3.93;;;;;;;6.97;100.00;103733.97;5318920;27;20366;-79
2021/12/18 13:51:18;;;;;;;4.50;3.67;;;;;;;6.93;100.00;103736.56;5324991;28;20039;-80
2021/12/18 13:53:53;;;;;;;5.60;4.50;;;;;;;6.80;100.00;103725.22;5324184;27;20077;-80
2021/12/18 13:56:27;;;;;;;6.03;4.63;;;;;;;6.81;100.00;103729.59;5327911;27;20019;-79
2021/12/18 13:59:11;;;;;;;7.70;5.93;;;;;;;6.82;100.00;103744.34;5327911;27;20038;-79
2021/12/18 14:01:42;;;;;;;6.43;5.23;;;;;;;6.86;100.00;103741.75;5327050;28;20366;-79
2021/12/18 14:04:18;;;;;;;7.67;6.07;;;;;;;6.78;100.00;103739.13;5318344;27;20080;-79
2021/12/18 14:06:50;;;;;;;11.13;6.60;;;;;;;6.62;100.00;103735.59;5315014;28;20467;-79
2021/12/18 14:09:28;;;;;;;8.63;5.90;;;;;;;6.71;100.00;103732.16;5320187;27;20043;-80
2021/12/18 14:12:07;;;;;;;14.03;5.77;;;;;;;6.70;100.00;103729.56;5321881;28;20151;-80
2021/12/18 14:14:50;;;;;;;7.23;6.13;;;;;;;6.78;100.00;103733.94;5326808;28;20024;-80
2021/12/18 14:17:24;;;;;;;10.10;6.37;;;;;;;6.65;100.00;103748.63;5327710;27;20107;-79
2021/12/18 14:20:10;;;;;;;9.43;6.32;;;;;;;6.76;100.00;103748.69;5329217;27;20868;-79
2021/12/18 14:22:42;;;;;;;9.20;7.37;;;;;;;6.62;100.00;103742.53;5329423;27;20505;-80
2021/12/18 14:25:16;;;;;;;7.47;6.13;;;;;;;6.56;100.00;103738.19;5329547;27;20027;-79
2021/12/18 14:27:51;;;;;;;6.70;5.43;;;;;;;6.51;100.00;103725.13;5318044;27;20370;-79
2021/12/18 14:30:25;;;;;;;8.57;6.00;;;;;;;6.74;100.00;103737.38;5308416;28;20028;-80
2021/12/18 14:33:11;;;;;;;7.05;5.68;;;;;;;6.74;100.00;103737.38;5326454;28;20195;-80
2021/12/18 14:35:50;;;;;;;6.27;5.50;;;;;;;6.70;100.00;103735.66;5329878;27;20394;-80
2021/12/18 14:38:23;;;;;;;6.43;5.57;;;;;;;6.72;100.00;103733.88;5328716;27;20050;-79
2021/12/18 14:41:00;;;;;;;7.87;6.23;;;;;;;6.73;100.00;103730.44;5329677;27;20098;-79
2021/12/18 14:43:32;;;;;;;7.00;5.90;;;;;;;6.63;100.00;103724.31;5329899;27;20030;-79
2021/12/18 14:46:17;;;;;;;7.87;6.90;;;;;;;6.78;100.00;103718.28;5329841;27;20431;-79
2021/12/18 14:48:48;;;;;;;7.60;6.27;;;;;;;6.70;100.00;103734.75;5328534;27;20383;-79
2021/12/18 14:51:27;;;;;;;8.07;7.23;;;;;;;6.98;100.00;103725.28;5316511;27;20027;-79
2021/12/18 14:53:59;;;;;;;7.97;6.83;;;;;;;6.54;100.00;103712.13;5314302;28;20088;-79
2021/12/18 14:56:31;;;;;;;8.47;7.67;;;;;;;6.74;100.00;103732.16;5315041;28;20115;-79
2021/12/18 14:59:16;;;;;;;8.20;6.73;;;;;;;6.73;100.00;103725.22;5314407;28;20038;-79
2021/12/18 15:02:01;;;;;;;9.45;6.97;;;;;;;6.74;100.00;103715.66;5314973;28;20475;-78
2021/12/18 15:04:32;;;;;;;10.37;8.03;;;;;;;6.73;100.00;103735.66;5315443;28;20080;-79
2021/12/18 15:07:10;;;;;;;10.50;8.60;;;;;;;6.64;100.00;103689.59;5315095;28;20506;-79
2021/12/18 15:09:53;;;;;;;8.80;7.40;;;;;;;6.97;100.00;103730.47;5313830;28;20024;-78
2021/12/18 15:12:26;;;;;;;9.30;8.33;;;;;;;6.76;100.00;103725.22;5303241;28;20048;-79
2021/12/18 15:14:57;;;;;;;8.67;7.77;;;;;;;6.74;100.00;103732.16;5293314;28;20307;-78
2021/12/18 15:17:34;;;;;;;9.70;7.13;;;;;;;6.79;100.00;103729.56;5293348;28;20081;-79
2021/12/18 15:20:06;;;;;;;11.57;8.17;;;;;;;6.61;100.00;103730.41;5293541;28;20035;-78
2021/12/18 15:22:37;;;;;;;9.57;7.97;;;;;;;6.56;100.00;103724.28;5293047;28;20032;-78
2021/12/18 15:25:09;;;;;;;9.23;8.30;;;;;;;6.49;100.00;103729.47;5293640;28;20032;-79
2021/12/18 15:27:40;;;;;;;10.73;8.03;;;;;;;6.47;100.00;103701.69;5293407;28;20093;-79
2021/12/18 15:30:11;;;;;;;9.57;8.17;;;;;;;6.74;100.00;103716.53;5293663;28;20502;-78
2021/12/18 15:32:42;;;;;;;9.00;7.70;;;;;;;6.90;100.00;103730.47;5292712;28;20274;-79
2021/12/18 15:35:14;;;;;;;9.07;8.10;;;;;;;6.93;100.00;103742.63;5293013;28;20035;-79
2021/12/18 15:37:45;;;;;;;18.40;13.77;;;;;;;6.90;100.00;103753.06;5309138;28;20039;-79
2021/12/18 15:40:16;;;;;;;10.60;9.50;;;;;;;6.57;99.81;103713.88;5314188;28;20047;-78
2021/12/18 15:42:48;;;;;;;9.67;8.70;;;;;;;6.44;100.00;103697.34;5313674;28;20230;-77
2021/12/18 15:45:19;;;;;;;11.20;8.53;;;;;;;6.65;100.00;103690.44;5305397;28;20076;-78
2021/12/18 15:47:51;;;;;;;10.90;9.70;;;;;;;6.77;99.74;103746.94;5310607;28;20016;-78
2021/12/18 15:50:24;;;;;;;12.00;10.77;;;;;;;6.83;100.00;103740.88;5309514;28;20024;-78
2021/12/18 15:52:55;;;;;;;11.33;10.13;;;;;;;6.90;100.00;103756.53;5313194;28;20047;-79
2021/12/18 15:55:27;;;;;;;12.20;9.37;;;;;;;6.75;99.96;103749.56;5313560;28;20497;-78
2021/12/18 15:57:58;;;;;;;9.47;8.57;;;;;;;6.64;99.95;103743.41;5314167;28;20030;-78
2021/12/18 16:00:32;;;;;;;11.53;9.73;;;;;;;6.65;99.62;103738.22;5313236;28;20023;-79
2021/12/18 16:03:05;;;;;;;11.43;9.25;;;;;;;6.39;99.88;103699.03;5302800;28;20031;-78
2021/12/18 16:05:39;;;;;;;9.53;8.53;;;;;;;6.39;99.84;103718.16;5293075;28;20380;-78
2021/12/18 16:08:10;;;;;;;11.20;9.85;;;;;;;6.71;99.54;103742.59;5292786;28;20020;-78
2021/12/18 16:10:43;;;;;;;12.30;10.60;;;;;;;6.20;98.88;103698.09;5292435;28;20368;-78
2021/12/18 16:13:28;;;;;;;11.93;10.60;;;;;;;6.43;99.88;103742.47;5292241;28;20028;-79
2021/12/18 16:16:00;;;;;;;12.40;10.67;;;;;;;6.47;99.62;103738.16;5293227;28;20032;-78
2021/12/18 16:18:32;;;;;;;12.20;10.60;;;;;;;6.17;99.45;103696.34;5291759;28;20439;-78
2021/12/18 16:21:05;;;;;;;12.80;11.33;;;;;;;6.61;100.00;103748.63;5292648;28;20455;-78
2021/12/18 16:23:37;;;;;;;12.50;11.20;;;;;;;6.57;99.14;103733.84;5296280;28;20456;-79
2021/12/18 16:26:09;;;;;;;10.57;9.47;;;;;;;6.62;98.86;103748.63;5305639;28;20515;-79
2021/12/18 16:28:40;;;;;;;11.00;9.80;;;;;;;6.58;98.99;103752.06;5294792;28;20039;-79
2021/12/18 16:31:12;;;;;;;12.73;11.37;;;;;;;6.43;98.20;103718.16;5303297;28;20027;-79
2021/12/18 16:33:46;;;;;;;11.80;10.57;;;;;;;6.22;98.60;103707.66;5299551;28;20031;-79
2021/12/18 16:36:19;;;;;;;11.88;10.57;;;;;;;6.19;98.38;103718.06;5303393;28;20295;-79
2021/12/18 16:39:13;;;;;;;14.07;11.77;;;;;;;5.98;98.63;103687.56;5303376;28;20036;-79
2021/12/18 16:41:54;;;;;;;11.93;10.73;;;;;;;5.74;98.86;103663.16;5305594;28;20031;-78
2021/12/18 16:45:16;;;;;;;;;;;;;;;;;;;;;
2021/12/18 16:48:28;;;;;;;13.47;11.27;;;;;;;6.35;99.21;103749.38;5276874;28;20070;-78
2021/12/18 16:51:00;;;;;;;12.03;10.57;;;;;;;6.00;98.83;103681.50;5307408;28;20024;-78
2021/12/18 17:04:18;;;;;;;13.83;12.30;;;;;;;6.05;99.67;103674.63;5330676;22;20575;-78
2021/12/18 17:07:02;;;;;;;14.17;12.67;;;;;;;6.19;98.83;103692.03;5273237;28;20032;-78
2021/12/18 17:10:03;;;;;;;13.10;11.77;;;;;;;6.33;99.07;103707.72;5255979;28;20017;-78
2021/12/18 17:27:32;;;;;;;14.03;12.53;;;;;;;6.19;99.09;103680.75;5258736;28;20032;-78
2021/12/18 17:30:41;;;;;;;15.52;12.88;;;;;;;5.99;99.09;103678.88;5182697;28;20034;-78
2021/12/18 17:34:02;;;;;;;14.37;12.87;;;;;;;5.85;98.86;103671.03;5158363;28;20026;-78
2021/12/18 17:40:05;;;;;;;13.37;11.97;;;;;;;5.92;98.64;103689.25;5138819;28;20047;-78
2021/12/18 17:42:37;;;;;;;13.53;12.03;;;;;;;5.93;98.64;103684.94;5135423;29;20494;-79
2021/12/18 17:45:08;;;;;;;14.57;12.53;;;;;;;5.75;99.37;103665.75;5261632;28;20047;-79
2021/12/18 17:47:45;;;;;;;13.63;12.23;;;;;;;6.49;99.48;103736.44;5277430;28;20063;-79
2021/12/18 17:50:18;;;;;;;14.63;13.07;;;;;;;6.43;100.00;103733.78;5280523;28;20032;-78
2021/12/18 17:53:29;;;;;;;14.90;12.87;;;;;;;6.21;99.47;103690.31;5278533;28;20028;-80
2021/12/18 17:59:16;;;;;;;15.57;12.83;;;;;;;6.31;98.67;103709.44;5191073;28;20205;-82
2021/12/18 18:04:43;;;;;;;16.17;12.97;;;;;;;6.26;99.07;103669.50;5192254;28;20050;-80
2021/12/18 18:07:21;;;;;;;15.75;14.05;;;;;;;6.19;99.12;103660.81;5181458;28;20537;-82
2021/12/18 18:10:44;;;;;;;;;;;;;;;;;;;;;
2021/12/18 18:13:24;;;;;;;17.90;14.87;;;;;;;6.01;98.82;103657.22;5216541;28;20063;-80
2021/12/18 18:16:22;;;;;;;;;;;;;;;;;;;;;
2021/12/18 18:18:57;;;;;;;16.37;14.47;;;;;;;6.47;99.59;103684.34;5263747;28;20027;-81
2021/12/18 18:21:34;;;;;;;;;;;;;;;6.91;99.09;103726.16;5264727;28;20345;-81
2021/12/18 18:24:06;;;;;;;12.30;10.67;;;;;;;6.54;98.79;103717.34;5263209;28;19908;-81
2021/12/18 18:26:37;;;;;;;19.57;16.57;;;;;;;6.18;99.94;103669.47;5263238;28;20091;-81
2021/12/18 18:29:09;;;;;;;23.60;19.53;;;;;;;6.63;100.00;103718.25;5268406;28;20649;-81
2021/12/18 18:31:40;;;;;;;20.63;16.70;;;;;;;6.33;99.24;103686.03;5268542;28;20024;-81
2021/12/18 18:34:12;;;;;;;19.10;15.87;;;;;;;6.58;99.31;103701.75;5269093;28;20127;-80
2021/12/18 18:36:44;;;;;;;16.80;14.73;;;;;;;6.43;99.51;103690.41;5269517;28;20024;-81
2021/12/18 18:39:16;;;;;;;16.37;14.57;;;;;;;6.44;99.03;103679.09;5267943;28;20038;-80
2021/12/18 18:41:47;;;;;;;16.30;14.07;;;;;;;6.50;99.52;103673.94;5267486;28;20033;-81
2021/12/18 18:44:21;;;;;;;19.47;16.43;;;;;;;6.45;99.34;103667.84;5267539;28;20096;-81
2021/12/18 18:47:00;;;;;;;19.20;15.43;;;;;;;6.53;99.12;103693.88;5267648;28;20859;-81
2021/12/18 18:49:32;;;;;;;15.83;13.30;;;;;;;6.54;98.95;103703.47;5268802;28;20021;-80
2021/12/18 18:52:04;;;;;;;20.80;13.63;;;;;;;6.57;99.83;103710.41;5266839;28;20673;-81
2021/12/18 18:54:45;;;;;;;18.97;14.37;;;;;;;6.51;99.83;103699.09;5268151;28;20044;-82
2021/12/18 18:58:23;;;;;;;17.73;14.30;;;;;;;6.74;99.22;103721.75;5265359;28;20056;-79
2021/12/18 19:05:03;;;;;;;19.10;12.90;;;;;;;6.76;100.00;103707.00;5265761;28;20048;-79
2021/12/18 19:11:21;;;;;;;12.93;10.93;;;;;;;6.50;99.25;103650.50;5223049;28;20041;-79
2021/12/18 19:20:15;;;;;;;;;;;;;;;7.04;98.92;103713.13;5219047;28;20237;-76
2021/12/18 19:22:47;;;;;;;13.40;10.87;;;;;;;6.69;99.58;103688.72;5218156;28;19929;-73
2021/12/18 19:25:18;;;;;;;12.67;10.10;;;;;;;6.64;98.81;103710.44;5218365;28;20029;-74
2021/12/18 19:27:50;;;;;;;15.07;11.13;;;;;;;6.66;99.83;103707.84;5200540;28;20032;-74
2021/12/18 19:30:25;;;;;;;17.00;12.40;;;;;;;6.74;99.96;103708.72;5218036;28;20036;-75
2021/12/18 19:32:58;;;;;;;16.17;12.03;;;;;;;6.64;98.89;103709.56;5218451;28;20512;-76
2021/12/18 19:35:33;;;;;;;13.47;11.90;;;;;;;6.84;99.56;103701.78;5218689;28;20038;-72
2021/12/18 19:38:06;;;;;;;15.13;12.03;;;;;;;6.51;100.00;103674.81;5217758;28;20164;-73
2021/12/18 19:40:37;;;;;;;13.77;11.43;;;;;;;6.73;99.71;103704.38;5216395;28;20033;-74
2021/12/18 19:43:09;;;;;;;17.20;12.87;;;;;;;6.62;99.33;103700.88;5216826;28;20524;-77
2021/12/18 19:45:40;;;;;;;19.63;14.17;;;;;;;6.59;99.73;103699.13;5213881;28;20360;-78
2021/12/18 19:48:11;;;;;;;15.93;13.37;;;;;;;6.63;99.84;103702.63;5217259;28;20037;-78
2021/12/18 19:50:43;;;;;;;15.63;12.97;;;;;;;6.85;99.64;103697.47;5218878;28;20032;-76
2021/12/18 19:53:14;;;;;;;17.67;13.87;;;;;;;6.84;99.71;103693.13;5217517;28;20041;-75
2021/12/18 19:55:45;;;;;;;15.13;12.87;;;;;;;6.93;99.43;103693.13;5200322;28;20061;-76
2021/12/18 19:58:16;;;;;;;14.43;12.33;;;;;;;6.94;99.54;103679.25;5201242;28;20017;-75
2021/12/18 20:00:48;;;;;;;14.30;12.57;;;;;;;6.74;100.00;103679.19;5219437;28;20045;-73
2021/12/18 20:05:50;;;;;;;14.83;13.23;;;;;;;6.80;99.60;103688.75;5228252;28;20034;-74
2021/12/18 20:08:24;;;;;;;17.60;14.10;;;;;;;6.92;100.00;103683.59;5229200;28;20677;-74
2021/12/18 20:10:56;;;;;;;16.65;14.18;;;;;;;6.80;100.00;103687.03;5229992;28;20029;-73
2021/12/18 20:13:27;;;;;;;18.53;14.87;;;;;;;6.69;100.00;103670.50;5229022;28;20072;-73
2021/12/18 20:15:58;;;;;;;21.60;16.97;;;;;;;6.80;100.00;103694.84;5230161;28;20084;-72
2021/12/18 20:18:29;;;;;;;18.63;15.63;;;;;;;6.75;100.00;103681.84;5228421;28;20076;-73
2021/12/18 20:21:02;;;;;;;18.17;14.80;;;;;;;6.78;100.00;103676.63;5229330;28;20033;-72
2021/12/18 20:23:33;;;;;;;16.77;14.97;;;;;;;6.95;100.00;103693.13;5227542;28;20456;-73
2021/12/18 20:26:07;;;;;;;17.13;15.27;;;;;;;6.83;99.87;103688.75;5229215;28;20032;-74
2021/12/18 20:28:38;;;;;;;27.83;23.10;;;;;;;6.95;100.00;103678.38;5228174;28;20557;-72
2021/12/18 20:31:10;;;;;;;36.07;28.27;;;;;;;7.07;99.34;103677.50;5228076;28;20148;-73
2021/12/18 20:33:44;;;;;;;33.67;28.87;;;;;;;6.81;99.57;103662.72;5228525;28;20023;-75
2021/12/18 20:36:15;;;;;;;31.13;27.30;;;;;;;7.08;99.34;103678.38;5229523;28;20466;-74
2021/12/18 20:38:46;;;;;;;30.33;25.20;;;;;;;6.84;99.77;103654.91;5227115;28;20037;-74
2021/12/18 20:41:18;;;;;;;29.10;23.17;;;;;;;6.93;98.58;103664.47;5228989;28;20029;-77
2021/12/18 20:43:55;;;;;;;25.30;21.67;;;;;;;6.90;98.34;103661.84;5227589;28;20033;-76
2021/12/18 20:46:26;;;;;;;21.70;18.77;;;;;;;7.10;98.58;103661.03;5210879;28;20083;-77
2021/12/18 20:48:58;;;;;;;21.70;18.47;;;;;;;6.93;99.08;103667.06;5228362;28;20814;-78
2021/12/18 20:51:33;;;;;;;20.97;16.80;;;;;;;7.05;99.02;103657.53;5226879;28;20124;-77
2021/12/18 20:54:08;;;;;;;17.13;15.32;;;;;;;7.08;99.11;103674.06;5228865;28;20079;-77
2021/12/18 20:56:41;;;;;;;17.60;15.67;;;;;;;6.85;99.81;103663.59;5228434;28;20040;-79
2021/12/18 20:59:13;;;;;;;17.93;14.73;;;;;;;6.95;100.00;103657.53;5228456;28;20044;-72
2021/12/18 21:01:45;;;;;;;17.93;14.97;;;;;;;7.04;99.53;103661.00;5207376;28;20073;-77
2021/12/18 21:04:17;;;;;;;18.63;16.63;;;;;;;7.08;99.14;103665.34;5209252;28;20025;-81
2021/12/18 21:06:49;;;;;;;20.63;16.40;;;;;;;6.96;99.87;103658.41;5225903;28;20026;-79
2021/12/18 21:09:20;;;;;;;20.23;18.03;;;;;;;6.78;99.84;103655.78;5208537;28;20475;-75
2021/12/18 21:11:51;;;;;;;18.90;16.03;;;;;;;6.87;100.00;103659.25;5227985;28;20681;-79
2021/12/18 21:14:22;;;;;;;18.47;14.80;;;;;;;6.96;99.62;103642.78;5228395;28;20143;-81
2021/12/18 21:16:57;;;;;;;18.33;15.87;;;;;;;6.92;99.98;103660.13;5228479;28;20032;-79
2021/12/18 21:19:28;;;;;;;16.17;14.17;;;;;;;7.00;99.81;103658.41;5210115;28;20037;-84
2021/12/18 21:22:02;;;;;;;17.73;15.17;;;;;;;6.98;99.81;103665.34;5227704;28;20080;-78
2021/12/18 21:24:34;;;;;;;15.80;13.82;;;;;;;6.95;99.87;103667.06;5210678;28;20204;-78
2021/12/18 21:27:05;;;;;;;18.30;16.30;;;;;;;7.03;99.74;103657.53;5228382;28;20553;-82
2021/12/18 21:29:36;;;;;;;18.73;14.13;;;;;;;7.06;99.48;103656.66;5228044;28;20057;-83
2021/12/18 21:32:08;;;;;;;15.90;14.07;;;;;;;6.97;99.84;103650.59;5229049;28;20705;-84
2021/12/18 21:37:21;;;;;;;14.63;12.97;;;;;;;7.08;99.52;103644.50;5227122;28;20037;-82
2021/12/18 21:39:52;;;;;;;14.30;12.67;;;;;;;6.97;99.04;103647.09;5228127;28;20366;-85
2021/12/18 21:42:24;;;;;;;15.33;13.27;;;;;;;6.99;100.00;103647.97;5228354;28;20083;-86
2021/12/18 21:44:58;;;;;;;14.70;13.10;;;;;;;7.04;99.79;103645.38;5211048;28;20068;-91
2021/12/18 21:47:30;;;;;;;16.83;13.27;;;;;;;7.06;99.40;103649.72;5229108;28;20066;-83
2021/12/18 21:50:03;;;;;;;21.83;16.30;;;;;;;6.99;100.00;103642.75;5210673;28;20041;-83
2021/12/18 21:52:35;;;;;;;18.73;14.23;;;;;;;7.14;99.33;103652.31;5227292;28;20033;-78
2021/12/18 21:55:07;;;;;;;15.60;13.87;;;;;;;7.00;99.45;103649.69;5228700;28;20026;-83
2021/12/18 21:57:38;;;;;;;16.20;13.33;;;;;;;7.04;99.40;103643.63;5228331;28;20029;-74
2021/12/18 22:00:12;;;;;;;13.10;11.67;;;;;;;7.09;99.20;103651.44;5228341;28;20018;-78
2021/12/18 22:02:43;;;;;;;13.83;12.13;;;;;;;7.09;98.61;103643.63;5229706;28;20025;-75
2021/12/18 22:05:18;;;;;;;12.13;10.83;;;;;;;7.03;98.81;103639.31;5231073;28;20048;-74
2021/12/18 22:07:49;;;;;;;;;;;;;;;7.31;99.05;103654.94;5229338;28;20213;-75
2021/12/18 22:10:20;;;;;;;12.60;10.03;;;;;;;7.13;98.92;103655.81;5231718;28;20003;-73
2021/12/18 22:12:52;;;;;;;12.20;9.27;;;;;;;7.10;98.41;103651.44;5231100;28;20080;-78
2021/12/18 22:15:24;;;;;;;12.17;9.73;;;;;;;7.10;98.25;103656.66;5227461;28;20025;-78
2021/12/18 22:17:56;;;;;;;12.27;10.37;;;;;;;7.04;98.51;103651.44;5207507;28;20042;-76
2021/12/18 22:20:28;;;;;;;12.17;9.70;;;;;;;6.96;98.17;103648.84;5210732;28;20489;-78
2021/12/18 22:23:00;;;;;;;11.77;10.00;;;;;;;6.96;97.97;103654.06;5208059;28;20057;-75
2021/12/18 22:25:33;;;;;;;13.33;10.53;;;;;;;7.02;99.42;103654.06;5227873;28;20033;-74
2021/12/18 22:28:08;;;;;;;11.53;10.33;;;;;;;7.09;98.40;103656.66;5213476;28;20108;-89
2021/12/18 22:30:45;;;;;;;14.17;11.20;;;;;;;7.21;98.45;103654.06;5232216;28;20029;-77
2021/12/18 22:33:19;;;;;;;12.70;10.20;;;;;;;7.20;97.86;103651.44;5231814;28;20029;-77
2021/12/18 22:35:51;;;;;;;12.95;9.95;;;;;;;7.16;97.51;103636.69;5213946;28;20034;-78
2021/12/18 22:38:23;;;;;;;13.63;10.77;;;;;;;7.18;97.96;103648.84;5212316;28;20083;-75
2021/12/18 22:40:56;;;;;;;10.97;9.50;;;;;;;7.11;97.71;103647.09;5231515;28;20065;-77
2021/12/18 22:43:27;;;;;;;11.93;10.03;;;;;;;7.16;97.23;103644.53;5231063;28;20026;-79
2021/12/18 22:46:06;;;;;;;11.97;9.90;;;;;;;7.09;97.63;103635.81;5231441;28;20017;-79
2021/12/18 22:48:39;;;;;;;12.20;9.97;;;;;;;7.07;97.76;103635.81;5213474;28;20021;-76
2021/12/18 22:51:10;;;;;;;12.80;10.07;;;;;;;7.16;98.19;103629.72;5209572;28;20017;-78
2021/12/18 22:53:41;;;;;;;12.70;10.33;;;;;;;6.85;97.88;103614.97;5228400;28;20029;-80
2021/12/18 22:56:12;;;;;;;12.00;10.07;;;;;;;7.07;98.09;103621.94;5228555;28;20024;-78
2021/12/18 22:58:44;;;;;;;10.37;9.13;;;;;;;7.07;98.56;103637.56;5230139;28;20039;-82
2021/12/18 23:01:22;;;;;;;9.53;8.53;;;;;;;7.19;98.00;103629.72;5209918;28;20468;-77
2021/12/18 23:03:54;;;;;;;9.93;8.43;;;;;;;7.10;98.42;103627.97;5227972;28;20041;-80
2021/12/18 23:06:26;;;;;;;15.70;9.77;;;;;;;7.25;98.23;103632.34;5226749;28;20049;-76
2021/12/18 23:08:57;;;;;;;9.80;8.50;;;;;;;7.22;97.98;103616.72;5210085;28;20116;-82
2021/12/18 23:11:34;;;;;;;11.67;9.40;;;;;;;7.21;98.57;103617.56;5226620;28;20587;-80
2021/12/18 23:21:59;;;;;;;12.45;9.13;;;;;;;7.06;98.87;103608.03;5225893;28;20067;-75
2021/12/18 23:24:31;;;;;;;12.13;9.85;;;;;;;7.15;98.72;103612.38;5203543;28;20075;-77
2021/12/18 23:27:02;;;;;;;12.77;10.37;;;;;;;7.07;99.01;103603.69;5209497;28;20641;-77
2021/12/18 23:29:33;;;;;;;12.43;10.70;;;;;;;7.07;98.17;103616.72;5227959;28;20112;-75
2021/12/18 23:32:05;;;;;;;15.30;11.83;;;;;;;6.96;98.78;103604.56;5229081;28;20592;-76
2021/12/18 23:34:36;;;;;;;15.93;11.50;;;;;;;7.02;98.86;103599.34;5227880;28;20528;-75
2021/12/18 23:37:07;;;;;;;16.47;11.17;;;;;;;6.97;98.19;103601.06;5227505;28;20030;-75
2021/12/18 23:39:41;;;;;;;13.97;11.77;;;;;;;7.05;99.34;103608.03;5226499;28;20064;-77
2021/12/18 23:42:13;;;;;;;14.57;9.47;;;;;;;7.10;98.78;103598.47;5209872;28;20021;-78
2021/12/18 23:47:34;;;;;;;12.97;9.80;;;;;;;7.02;99.70;103586.31;5227986;28;20018;-80
